Time;durP1;ratioP1;P1;durP2;ratioP2;P2;SDS_P1;SDS_P2;PMS_P1;PMS_P2;Temp;Humidity;BMP_temperature;BMP_pressure;BME280_temperature;BME280_humidity;BME280_pressure;Samples;Min_cycle;Max_cycle;Signal;HPM_P1;HPM_P2
2023/05/15 00:02:15;;;;;;;11.40;7.40;;;;;;;11.50;100.00;101038.41;7383598;19;21017;-42
2023/05/15 00:04:44;;;;;;;12.30;8.53;;;;;;;11.48;100.00;101042.59;7394206;19;20450;-43
2023/05/15 00:07:14;;;;;;;11.90;7.50;;;;;;;11.29;100.00;101044.41;7389107;19;20449;-43
2023/05/15 00:09:44;;;;;;;10.83;7.87;;;;;;;11.18;100.00;101064.59;7393574;19;20412;-43
2023/05/15 00:12:14;;;;;;;10.73;7.57;;;;;;;11.13;100.00;101079.00;7389232;19;20436;-41
2023/05/15 00:14:46;;;;;;;13.60;8.77;;;;;;;11.40;100.00;101088.81;7393193;19;20448;-43
2023/05/15 00:17:15;;;;;;;12.43;8.60;;;;;;;11.34;100.00;101083.38;7387905;19;20423;-45
2023/05/15 00:19:45;;;;;;;13.80;8.40;;;;;;;11.09;100.00;101090.03;7393482;19;20407;-41
2023/05/15 00:22:14;;;;;;;11.57;8.33;;;;;;;11.05;100.00;101090.69;7388578;19;20462;-46
2023/05/15 00:24:44;;;;;;;13.00;8.80;;;;;;;10.94;100.00;101098.81;7393664;19;20446;-43
2023/05/15 00:27:14;;;;;;;10.80;8.20;;;;;;;10.86;100.00;101110.50;7389452;19;20450;-44
2023/05/15 00:29:46;;;;;;;14.30;9.17;;;;;;;10.80;100.00;101110.22;7392747;19;20415;-42
2023/05/15 00:32:15;;;;;;;16.17;9.37;;;;;;;10.82;100.00;101116.34;7385752;19;20977;-42
2023/05/15 00:34:45;;;;;;;14.73;8.93;;;;;;;10.82;100.00;101131.81;7392802;19;21078;-44
2023/05/15 00:37:15;;;;;;;12.90;8.47;;;;;;;10.84;100.00;101132.78;7388796;19;20471;-41
2023/05/15 00:39:44;;;;;;;18.23;9.30;;;;;;;10.82;100.00;101128.38;7391607;19;20799;-41
2023/05/15 00:42:15;;;;;;;18.90;10.73;;;;;;;10.90;100.00;101133.09;7387648;19;20460;-41
2023/05/15 00:44:47;;;;;;;13.20;9.43;;;;;;;10.89;100.00;101127.84;7390415;19;20442;-44
2023/05/15 00:47:17;;;;;;;16.57;10.00;;;;;;;10.97;100.00;101133.38;7386713;19;20450;-43
2023/05/15 00:49:47;;;;;;;13.70;9.63;;;;;;;10.91;100.00;101121.03;7391295;19;20934;-42
2023/05/15 00:52:18;;;;;;;17.50;10.37;;;;;;;10.89;100.00;101114.94;7386266;19;20457;-45
2023/05/15 00:54:47;;;;;;;13.50;8.97;;;;;;;10.80;100.00;101115.38;7390626;19;20442;-45
2023/05/15 00:57:17;;;;;;;13.00;9.20;;;;;;;10.73;100.00;101113.34;7386816;19;20422;-44
2023/05/15 00:59:49;;;;;;;13.10;9.17;;;;;;;10.81;100.00;101127.47;7392138;19;20404;-43
2023/05/15 01:02:20;;;;;;;14.20;8.67;;;;;;;10.82;100.00;101121.50;7384680;19;20819;-41
2023/05/15 01:04:49;;;;;;;13.30;9.17;;;;;;;10.79;100.00;101119.69;7397568;19;20476;-43
2023/05/15 01:07:19;;;;;;;13.23;9.33;;;;;;;10.84;100.00;101119.88;7394228;19;20433;-44
2023/05/15 01:09:49;;;;;;;14.47;9.37;;;;;;;10.76;100.00;101108.31;7397886;19;20404;-45
2023/05/15 01:12:18;;;;;;;14.70;9.90;;;;;;;10.68;100.00;101107.97;7392667;19;20444;-41
2023/05/15 01:14:50;;;;;;;15.70;9.67;;;;;;;10.68;100.00;101110.53;7398918;19;20451;-41
2023/05/15 01:17:20;;;;;;;14.33;9.57;;;;;;;10.70;100.00;101103.75;7396187;19;20457;-42
2023/05/15 01:19:52;;;;;;;14.97;9.63;;;;;;;10.72;100.00;101103.81;7398799;19;20407;-42
2023/05/15 01:22:40;;;;;;;13.90;10.03;;;;;;;10.72;100.00;101101.25;7394994;19;20512;-42
2023/05/15 01:25:25;;;;;;;13.33;9.53;;;;;;;10.75;100.00;101098.78;7399173;19;20480;-43
2023/05/15 01:27:58;;;;;;;15.50;9.20;;;;;;;10.65;100.00;101095.81;7396948;19;20453;-45
2023/05/15 01:30:30;;;;;;;14.17;10.23;;;;;;;10.62;100.00;101100.81;7397352;19;20418;-41
2023/05/15 01:33:07;;;;;;;16.47;10.27;;;;;;;10.64;100.00;101096.63;7395934;19;20485;-41
2023/05/15 01:35:40;;;;;;;16.70;10.97;;;;;;;10.71;100.00;101096.91;7397081;19;20421;-44
2023/05/15 01:38:17;;;;;;;13.80;9.33;;;;;;;10.76;100.00;101097.97;7397182;19;20454;-48
2023/05/15 01:40:49;;;;;;;16.53;10.27;;;;;;;10.71;100.00;101089.16;7398401;19;20409;-42
2023/05/15 01:43:24;;;;;;;15.47;10.50;;;;;;;10.63;100.00;101089.69;7396863;19;20479;-40
2023/05/15 01:45:54;;;;;;;14.67;10.73;;;;;;;10.70;100.00;101082.22;7394866;19;20791;-41
2023/05/15 01:48:24;;;;;;;13.30;9.70;;;;;;;10.69;100.00;101088.19;7395907;19;20831;-41
2023/05/15 01:50:56;;;;;;;18.87;12.00;;;;;;;10.68;100.00;101079.59;7395012;19;20414;-42
2023/05/15 01:53:26;;;;;;;16.67;10.53;;;;;;;10.67;100.00;101086.44;7396037;19;20450;-45
2023/05/15 01:55:56;;;;;;;16.07;9.80;;;;;;;10.67;100.00;101081.25;7395299;19;20414;-44
2023/05/15 01:58:28;;;;;;;16.10;10.60;;;;;;;10.66;100.00;101078.59;7396755;19;20816;-43
2023/05/15 02:00:58;;;;;;;15.43;11.13;;;;;;;10.67;100.00;101082.97;7391832;19;20408;-47
2023/05/15 02:03:28;;;;;;;19.63;11.90;;;;;;;10.59;100.00;101080.03;7396190;19;20443;-43
2023/05/15 02:05:58;;;;;;;16.93;11.40;;;;;;;10.55;100.00;101083.28;7393186;19;20415;-46
2023/05/15 02:08:28;;;;;;;15.70;11.83;;;;;;;10.56;100.00;101087.59;7395888;19;20429;-44
2023/05/15 02:10:59;;;;;;;17.33;11.83;;;;;;;10.43;100.00;101088.75;7393874;19;20438;-44
2023/05/15 02:13:32;;;;;;;20.90;12.30;;;;;;;10.29;100.00;101095.78;7394679;19;20453;-42
2023/05/15 02:16:02;;;;;;;15.90;11.43;;;;;;;10.20;100.00;101092.78;7395099;19;20410;-42
2023/05/15 02:18:31;;;;;;;19.43;11.00;;;;;;;10.17;100.00;101100.34;7395242;19;20472;-44
2023/05/15 02:21:01;;;;;;;18.07;11.73;;;;;;;10.27;100.00;101107.72;7393334;19;20413;-40
2023/05/15 02:23:31;;;;;;;22.50;13.77;;;;;;;10.33;100.00;101108.03;7395158;19;20449;-42
2023/05/15 02:26:13;;;;;;;20.33;11.63;;;;;;;10.24;100.00;101107.56;7394652;19;20442;-42
2023/05/15 02:28:50;;;;;;;18.63;11.67;;;;;;;10.23;100.00;101110.94;7395528;19;21370;-42
2023/05/15 02:31:26;;;;;;;17.83;11.40;;;;;;;10.23;100.00;101105.78;7391623;19;20825;-41
2023/05/15 02:34:00;;;;;;;15.87;10.63;;;;;;;10.21;100.00;101107.44;7395639;19;20455;-41
2023/05/15 02:36:35;;;;;;;16.00;11.33;;;;;;;10.21;100.00;101107.44;7392903;19;20439;-43
2023/05/15 02:39:05;;;;;;;14.40;10.63;;;;;;;10.15;100.00;101107.13;7396210;19;20414;-43
2023/05/15 02:41:35;;;;;;;15.37;11.37;;;;;;;10.06;100.00;101107.56;7392169;19;20447;-42
2023/05/15 02:44:07;;;;;;;18.83;12.03;;;;;;;9.98;100.00;101115.78;7396056;19;20556;-42
2023/05/15 02:46:38;;;;;;;15.93;11.77;;;;;;;9.90;100.00;101116.22;7394376;19;20799;-43
2023/05/15 02:49:08;;;;;;;17.90;12.03;;;;;;;9.93;100.00;101119.84;7396739;19;20424;-43
2023/05/15 02:51:38;;;;;;;19.03;11.23;;;;;;;9.82;100.00;101119.28;7392740;19;20471;-44
2023/05/15 02:54:08;;;;;;;21.43;12.40;;;;;;;9.77;100.00;101120.75;7396528;19;20835;-45
2023/05/15 02:56:38;;;;;;;17.23;13.00;;;;;;;9.77;100.00;101122.44;7392328;19;20450;-40
2023/05/15 02:59:10;;;;;;;21.63;12.60;;;;;;;9.83;100.00;101115.91;7395366;19;20412;-41
2023/05/15 03:01:40;;;;;;;19.30;12.50;;;;;;;9.76;100.00;101118.09;7391442;19;20455;-40
2023/05/15 03:04:10;;;;;;;20.60;12.83;;;;;;;9.74;100.00;101118.00;7395732;19;20966;-43
2023/05/15 03:06:39;;;;;;;19.73;12.93;;;;;;;9.73;100.00;101113.66;7392751;19;21102;-41
2023/05/15 03:09:09;;;;;;;18.87;12.70;;;;;;;9.66;100.00;101112.47;7396092;19;20427;-42
2023/05/15 03:11:38;;;;;;;19.17;12.23;;;;;;;9.50;100.00;101110.81;7392081;19;20438;-44
2023/05/15 03:14:11;;;;;;;16.90;12.20;;;;;;;9.43;100.00;101114.75;7396816;19;20814;-44
2023/05/15 03:16:40;;;;;;;16.67;11.73;;;;;;;9.38;100.00;101108.47;7393259;19;20439;-42
2023/05/15 03:19:10;;;;;;;20.10;12.10;;;;;;;9.54;100.00;101107.56;7394685;19;20825;-44
2023/05/15 03:21:39;;;;;;;18.60;12.60;;;;;;;9.59;100.00;101105.25;7392311;19;20457;-40
2023/05/15 03:24:09;;;;;;;19.77;13.20;;;;;;;9.49;100.00;101106.44;7394789;19;20443;-42
2023/05/15 03:26:39;;;;;;;19.87;12.93;;;;;;;9.49;100.00;101110.72;7389022;19;20447;-41
2023/05/15 03:29:11;;;;;;;20.87;13.57;;;;;;;9.45;100.00;101107.97;7394340;19;20407;-40
2023/05/15 03:31:40;;;;;;;18.87;13.20;;;;;;;9.49;100.00;101109.00;7390692;19;20443;-42
2023/05/15 03:34:10;;;;;;;23.23;12.90;;;;;;;9.44;100.00;101106.19;7395525;19;20447;-41
2023/05/15 03:36:39;;;;;;;20.13;14.13;;;;;;;9.39;100.00;101107.66;7391140;19;20435;-41
2023/05/15 03:39:09;;;;;;;23.30;14.10;;;;;;;9.29;100.00;101106.28;7394807;19;20951;-42
2023/05/15 03:41:38;;;;;;;21.63;13.13;;;;;;;9.29;100.00;101105.41;7391265;19;20431;-44
2023/05/15 03:44:11;;;;;;;19.70;13.27;;;;;;;9.25;100.00;101094.06;7387960;19;20828;-40
2023/05/15 03:46:40;;;;;;;22.90;13.70;;;;;;;9.27;100.00;101099.28;7390370;19;20439;-40
2023/05/15 03:49:10;;;;;;;20.63;13.83;;;;;;;9.28;100.00;101093.34;7395769;19;20430;-44
2023/05/15 03:51:39;;;;;;;20.37;13.27;;;;;;;9.21;100.00;101094.72;7390057;19;20427;-39
2023/05/15 03:54:09;;;;;;;23.37;14.20;;;;;;;9.33;100.00;101086.72;7393987;19;20451;-44
2023/05/15 03:56:39;;;;;;;21.67;14.47;;;;;;;9.41;100.00;101080.31;7389479;19;20466;-43
2023/05/15 03:59:11;;;;;;;22.40;15.20;;;;;;;9.61;100.00;101071.81;7393740;19;20412;-41
2023/05/15 04:01:41;;;;;;;27.60;16.10;;;;;;;9.68;100.00;101076.47;7390632;19;20447;-42
2023/05/15 04:04:30;;;;;;;21.10;13.77;;;;;;;9.71;100.00;101081.78;7391856;19;20415;-40
2023/05/15 04:07:00;;;;;;;21.97;14.30;;;;;;;9.79;100.00;101077.88;7391376;19;20458;-40
2023/05/15 04:09:29;;;;;;;20.87;13.50;;;;;;;9.70;100.00;101083.47;7394023;19;20406;-44
2023/05/15 04:11:59;;;;;;;29.17;16.50;;;;;;;9.71;100.00;101090.38;7390552;19;20471;-42
2023/05/15 04:14:31;;;;;;;26.23;16.67;;;;;;;9.74;100.00;101084.50;7392121;19;20459;-42
2023/05/15 04:17:00;;;;;;;33.63;19.37;;;;;;;9.73;100.00;101087.88;7390934;19;20447;-44
2023/05/15 04:19:30;;;;;;;24.47;16.47;;;;;;;9.54;100.00;101086.09;7392582;19;20445;-44
2023/05/15 04:21:59;;;;;;;27.93;14.13;;;;;;;9.51;100.00;101084.25;7390630;19;20466;-42
2023/05/15 04:24:29;;;;;;;23.60;14.80;;;;;;;9.67;100.00;101077.28;7391709;19;20563;-45
2023/05/15 04:26:59;;;;;;;22.80;13.97;;;;;;;9.53;100.00;101079.16;7390069;19;20451;-44
2023/05/15 04:29:31;;;;;;;24.80;16.20;;;;;;;9.50;100.00;101077.31;7391726;19;20423;-44
2023/05/15 04:32:01;;;;;;;23.00;13.03;;;;;;;9.49;100.00;101078.09;7389581;19;20801;-40
2023/05/15 04:34:30;;;;;;;24.97;14.80;;;;;;;9.55;100.00;101073.25;7391845;19;20518;-45
2023/05/15 04:37:00;;;;;;;25.17;14.73;;;;;;;9.87;100.00;101065.41;7390648;19;20427;-41
2023/05/15 04:39:30;;;;;;;18.47;13.30;;;;;;;10.06;100.00;101071.47;7400984;19;20406;-42
2023/05/15 04:41:59;;;;;;;22.47;13.67;;;;;;;9.80;100.00;101078.78;7395576;19;20461;-43
2023/05/15 04:44:32;;;;;;;22.40;12.73;;;;;;;9.80;100.00;101079.66;7397836;19;20992;-41
2023/05/15 04:47:02;;;;;;;20.40;13.13;;;;;;;9.79;100.00;101085.63;7396615;19;20439;-44
2023/05/15 04:49:31;;;;;;;22.97;14.37;;;;;;;9.74;100.00;101074.19;7398715;19;20407;-43
2023/05/15 04:52:00;;;;;;;20.90;12.20;;;;;;;9.93;100.00;101069.97;7394732;19;20453;-40
2023/05/15 04:54:30;;;;;;;19.60;13.30;;;;;;;9.89;100.00;101078.38;7398300;19;20467;-44
2023/05/15 04:57:00;;;;;;;17.90;12.67;;;;;;;9.83;100.00;101077.25;7397762;19;20943;-41
2023/05/15 04:59:32;;;;;;;18.37;12.63;;;;;;;9.93;100.00;101081.16;7397709;19;20790;-40
2023/05/15 05:02:02;;;;;;;18.07;11.70;;;;;;;10.18;100.00;101074.63;7395160;19;20435;-43
2023/05/15 05:04:31;;;;;;;19.53;13.30;;;;;;;10.22;100.00;101073.09;7396547;19;20448;-41
2023/05/15 05:07:03;;;;;;;17.93;12.50;;;;;;;10.21;100.00;101086.78;7396348;19;20445;-42
2023/05/15 05:09:32;;;;;;;17.83;11.87;;;;;;;10.50;100.00;101083.06;7397821;19;20408;-42
2023/05/15 05:12:03;;;;;;;17.57;12.80;;;;;;;10.59;100.00;101082.63;7394792;19;21014;-42
2023/05/15 05:14:35;;;;;;;23.00;13.10;;;;;;;10.72;100.00;101088.34;7397000;19;20462;-43
2023/05/15 05:17:05;;;;;;;18.50;12.37;;;;;;;10.96;100.00;101080.84;7396885;19;20794;-42
2023/05/15 05:19:34;;;;;;;85.20;47.03;;;;;;;11.10;100.00;101078.88;7396550;19;20409;-45
2023/05/15 05:22:06;;;;;;;24.50;17.00;;;;;;;11.28;100.00;101072.78;7396475;19;20448;-43
2023/05/15 05:24:36;;;;;;;56.50;31.73;;;;;;;11.65;100.00;101060.53;7397184;19;20988;-45
2023/05/15 05:27:07;;;;;;;64.53;39.27;;;;;;;11.81;100.00;101052.63;7395358;19;20968;-43
2023/05/15 05:29:39;;;;;;;39.53;22.83;;;;;;;11.84;100.00;101023.44;7396868;19;20401;-42
2023/05/15 05:32:09;;;;;;;27.50;18.17;;;;;;;11.92;100.00;101001.34;7394083;19;20474;-40
2023/05/15 05:34:38;;;;;;;27.40;16.93;;;;;;;11.97;100.00;100989.50;7396555;19;20481;-44
2023/05/15 05:37:08;;;;;;;23.37;13.73;;;;;;;12.19;100.00;100968.78;7395205;19;20462;-47
2023/05/15 05:39:37;;;;;;;48.67;28.97;;;;;;;12.31;100.00;100945.94;7396685;19;20400;-43
2023/05/15 05:42:07;;;;;;;37.50;22.57;;;;;;;12.42;100.00;100920.50;7393448;19;20440;-43
2023/05/15 05:44:39;;;;;;;30.13;19.10;;;;;;;12.44;100.00;100908.50;7396185;19;20456;-43
2023/05/15 05:47:09;;;;;;;20.77;14.37;;;;;;;12.35;100.00;100877.97;7395163;19;20435;-44
2023/05/15 05:49:39;;;;;;;25.40;16.00;;;;;;;12.37;100.00;100878.91;7395874;19;20488;-44
2023/05/15 05:52:09;;;;;;;13.50;9.03;;;;;;;12.21;100.00;100868.84;7393305;19;20817;-43
2023/05/15 05:54:39;;;;;;;16.13;10.63;;;;;;;12.25;100.00;100875.91;7396298;19;20829;-44
2023/05/15 05:57:09;;;;;;;16.33;9.70;;;;;;;12.31;100.00;100870.94;7394693;19;20476;-40
2023/05/15 05:59:41;;;;;;;13.80;9.03;;;;;;;12.35;100.00;100846.06;7398559;19;20436;-41
2023/05/15 06:02:11;;;;;;;15.03;9.13;;;;;;;12.39;100.00;100845.34;7392824;19;20976;-41
2023/05/15 06:04:43;;;;;;;19.50;10.90;;;;;;;12.47;100.00;100843.94;7394972;19;20785;-43
2023/05/15 06:07:13;;;;;;;17.03;10.00;;;;;;;12.63;100.00;100831.50;7393834;19;20824;-44
2023/05/15 06:09:44;;;;;;;19.47;11.20;;;;;;;12.77;100.00;100822.50;7396389;19;20956;-41
2023/05/15 06:12:13;;;;;;;17.60;10.80;;;;;;;12.92;100.00;100813.50;7393545;19;20449;-45
2023/05/15 06:14:45;;;;;;;27.17;14.27;;;;;;;13.05;100.00;100810.47;7396238;19;20473;-43
2023/05/15 06:17:15;;;;;;;24.93;9.80;;;;;;;13.09;100.00;100785.56;7394709;19;20870;-43
2023/05/15 06:19:45;;;;;;;16.10;9.17;;;;;;;13.19;100.00;100766.00;7395589;19;20995;-44
2023/05/15 06:22:14;;;;;;;22.90;13.00;;;;;;;13.30;100.00;100749.06;7394526;19;20443;-43
2023/05/15 06:24:44;;;;;;;14.60;7.10;;;;;;;13.40;100.00;100713.06;7392235;19;20449;-47
2023/05/15 06:27:14;;;;;;;21.13;12.10;;;;;;;13.49;100.00;100692.66;7393739;19;21440;-44
2023/05/15 06:29:46;;;;;;;15.80;9.73;;;;;;;13.62;100.00;100681.78;7396166;19;20425;-44
2023/05/15 06:32:15;;;;;;;25.87;13.73;;;;;;;13.75;100.00;100648.41;7392624;19;20432;-46
2023/05/15 06:34:45;;;;;;;13.97;9.00;;;;;;;13.89;100.00;100665.22;7394732;19;20470;-45
2023/05/15 06:37:14;;;;;;;15.53;8.00;;;;;;;13.93;100.00;100636.78;7393570;19;20447;-47
2023/05/15 06:39:44;;;;;;;12.70;8.13;;;;;;;14.03;100.00;100641.34;7394747;19;20444;-43
2023/05/15 06:42:14;;;;;;;20.10;10.27;;;;;;;14.13;100.00;100599.25;7391637;19;20439;-42
2023/05/15 06:44:46;;;;;;;12.40;6.23;;;;;;;14.24;100.00;100609.00;7394108;19;20804;-43
2023/05/15 06:47:15;;;;;;;13.23;6.60;;;;;;;14.35;100.00;100625.72;7393241;19;20458;-42
2023/05/15 06:49:45;;;;;;;11.67;6.83;;;;;;;14.44;100.00;100592.19;7394547;19;20942;-43
2023/05/15 06:52:15;;;;;;;11.13;6.70;;;;;;;14.48;100.00;100538.63;7392847;19;20792;-42
2023/05/15 06:54:44;;;;;;;14.17;7.87;;;;;;;14.57;100.00;100486.91;7394625;19;20454;-43
2023/05/15 06:57:14;;;;;;;10.33;5.87;;;;;;;14.67;100.00;100468.94;7392215;19;21053;-44
2023/05/15 06:59:46;;;;;;;9.07;6.10;;;;;;;14.77;100.00;100467.44;7394097;19;20437;-42
2023/05/15 07:02:15;;;;;;;10.20;6.57;;;;;;;14.93;100.00;100476.41;7388729;19;20942;-41
2023/05/15 07:04:48;;;;;;;8.40;5.60;;;;;;;15.04;100.00;100441.13;7394570;19;20463;-43
2023/05/15 07:07:17;;;;;;;8.80;5.10;;;;;;;15.10;100.00;100475.00;7392559;19;20466;-44
2023/05/15 07:09:49;;;;;;;6.80;4.73;;;;;;;15.19;100.00;100427.53;7393766;19;20938;-44
2023/05/15 07:12:18;;;;;;;8.50;4.87;;;;;;;15.31;100.00;100424.25;7391669;19;20450;-42
2023/05/15 07:14:50;;;;;;;17.23;5.20;;;;;;;15.35;100.00;100409.59;7394134;19;20802;-44
2023/05/15 07:17:20;;;;;;;8.10;4.90;;;;;;;15.47;100.00;100394.19;7390377;19;20458;-46
2023/05/15 07:19:50;;;;;;;8.20;5.00;;;;;;;15.53;100.00;100399.47;7395623;19;20477;-47
2023/05/15 07:22:19;;;;;;;7.73;4.80;;;;;;;15.67;100.00;100398.81;7391404;19;21072;-43
2023/05/15 07:24:49;;;;;;;10.30;5.20;;;;;;;15.82;100.00;100405.97;7394397;19;20450;-42
2023/05/15 07:27:18;;;;;;;11.27;6.50;;;;;;;15.85;100.00;100412.94;7391891;19;20455;-43
2023/05/15 07:29:50;;;;;;;8.83;4.73;;;;;;;15.98;100.00;100407.09;7393726;19;20953;-41
2023/05/15 07:32:20;;;;;;;7.97;4.63;;;;;;;16.06;100.00;100413.28;7389878;19;20444;-43
2023/05/15 07:34:50;;;;;;;7.50;4.90;;;;;;;16.19;100.00;100403.03;7393519;19;20453;-42
2023/05/15 07:37:19;;;;;;;9.83;5.20;;;;;;;16.33;100.00;100398.00;7392122;19;20816;-45
2023/05/15 07:39:49;;;;;;;5.90;3.90;;;;;;;16.38;100.00;100408.47;7393703;19;20413;-45
2023/05/15 07:42:18;;;;;;;6.30;4.30;;;;;;;16.51;100.00;100391.28;7390636;19;20471;-42
2023/05/15 07:44:50;;;;;;;8.57;3.90;;;;;;;16.62;100.00;100400.09;7393269;19;20484;-43
2023/05/15 07:47:20;;;;;;;8.33;4.23;;;;;;;16.65;100.00;100451.31;7389160;19;20482;-44
2023/05/15 07:49:49;;;;;;;9.80;4.27;;;;;;;16.76;100.00;100449.72;7393586;19;20416;-47
2023/05/15 07:52:19;;;;;;;9.10;4.03;;;;;;;16.84;100.00;100435.06;7390616;19;20453;-43
2023/05/15 07:54:49;;;;;;;7.83;3.90;;;;;;;16.90;100.00;100550.59;7392010;19;20822;-44
2023/05/15 07:57:18;;;;;;;7.23;4.27;;;;;;;17.09;100.00;100575.19;7391730;19;21112;-46
2023/05/15 07:59:50;;;;;;;28.53;18.30;;;;;;;17.21;100.00;100535.34;7392795;19;20409;-46
2023/05/15 08:02:20;;;;;;;11.37;4.70;;;;;;;17.23;100.00;100550.16;7390465;19;20437;-42
2023/05/15 08:04:49;;;;;;;6.13;3.40;;;;;;;17.21;100.00;100598.81;7390972;19;21006;-44
2023/05/15 08:07:19;;;;;;;6.40;3.30;;;;;;;17.36;100.00;100615.47;7390575;19;20447;-47
2023/05/15 08:09:49;;;;;;;7.70;4.20;;;;;;;17.47;100.00;100632.13;7394473;19;20404;-43
2023/05/15 08:12:20;;;;;;;9.00;3.47;;;;;;;17.61;100.00;100637.50;7392474;19;20442;-45
2023/05/15 08:14:54;;;;;;;7.60;3.67;;;;;;;17.71;100.00;100641.06;7399198;19;20442;-43
2023/05/15 08:17:24;;;;;;;11.43;3.17;;;;;;;17.84;100.00;100647.28;7396648;19;20453;-45
2023/05/15 08:19:55;;;;;;;5.30;3.10;;;;;;;17.95;100.00;100644.78;7398603;19;20487;-41
2023/05/15 08:22:24;;;;;;;5.20;3.23;;;;;;;18.03;100.00;100639.63;7394213;19;20442;-41
2023/05/15 08:24:54;;;;;;;4.90;2.97;;;;;;;18.05;100.00;100630.09;7399076;19;20439;-43
2023/05/15 08:27:23;;;;;;;12.30;4.60;;;;;;;18.12;100.00;100638.88;7395562;19;20450;-47
2023/05/15 08:29:55;;;;;;;8.70;4.23;;;;;;;18.15;100.00;100625.84;7397196;19;20942;-45
2023/05/15 08:32:25;;;;;;;10.23;5.30;;;;;;;18.26;100.00;100625.94;7393231;19;20450;-41
2023/05/15 08:34:55;;;;;;;9.33;4.40;;;;;;;18.27;98.87;100630.28;7399373;19;20448;-42
2023/05/15 08:37:24;;;;;;;8.47;4.43;;;;;;;18.38;97.90;100633.88;7395831;19;20447;-44
2023/05/15 08:39:54;;;;;;;18.03;9.33;;;;;;;18.45;97.17;100630.44;7398128;19;20415;-48
2023/05/15 08:42:26;;;;;;;5.63;2.90;;;;;;;18.61;99.75;100622.72;7394886;19;20451;-47
2023/05/15 08:44:58;;;;;;;10.17;5.67;;;;;;;18.54;96.17;100628.72;7397918;19;20435;-39
2023/05/15 08:47:29;;;;;;;6.17;3.00;;;;;;;18.66;96.34;100628.81;7396333;19;20435;-42
2023/05/15 08:50:03;;;;;;;5.57;2.90;;;;;;;18.73;98.38;100620.13;7398490;19;20418;-42
2023/05/15 08:52:34;;;;;;;7.50;3.40;;;;;;;18.85;97.44;100628.91;7395619;19;20863;-43
2023/05/15 08:55:04;;;;;;;8.00;3.00;;;;;;;19.06;99.60;100624.72;7398201;19;20451;-45
2023/05/15 08:57:35;;;;;;;11.63;4.10;;;;;;;19.06;100.00;100629.94;7396319;19;20447;-45
2023/05/15 09:00:10;;;;;;;20.53;10.23;;;;;;;19.00;96.19;100618.56;7397790;19;20423;-46
2023/05/15 09:02:40;;;;;;;7.67;3.77;;;;;;;19.13;95.90;100622.13;7395225;19;20442;-44
2023/05/15 09:05:11;;;;;;;6.00;2.60;;;;;;;19.24;97.43;100622.19;7398233;19;20876;-44
2023/05/15 09:07:43;;;;;;;7.30;3.10;;;;;;;19.23;94.95;100625.63;7393533;19;20462;-43
2023/05/15 09:10:15;;;;;;;27.97;13.13;;;;;;;19.29;91.90;100630.03;7400804;19;20418;-41
2023/05/15 09:12:45;;;;;;;20.50;7.43;;;;;;;19.24;89.87;100626.53;7394882;19;20828;-45
2023/05/15 09:15:21;;;;;;;15.23;6.63;;;;;;;19.14;88.34;100630.84;7397635;19;20444;-42
2023/05/15 09:17:52;;;;;;;7.00;3.87;;;;;;;19.21;88.25;100634.34;7397029;19;20988;-45
2023/05/15 09:20:29;;;;;;;12.10;6.33;;;;;;;19.34;88.01;100627.44;7396610;19;20407;-42
2023/05/15 09:23:00;;;;;;;6.70;4.00;;;;;;;19.50;89.57;100624.00;7395084;19;20446;-42
2023/05/15 09:25:38;;;;;;;9.80;4.10;;;;;;;19.45;88.47;100620.50;7395476;19;20435;-45
2023/05/15 09:28:09;;;;;;;7.13;3.77;;;;;;;19.61;88.21;100623.13;7396387;19;20451;-42
2023/05/15 09:30:43;;;;;;;8.10;3.80;;;;;;;19.83;89.25;100614.47;7397351;19;20939;-44
2023/05/15 09:33:13;;;;;;;22.67;9.27;;;;;;;19.79;88.21;100622.31;7396522;19;20447;-41
2023/05/15 09:35:44;;;;;;;79.50;44.03;;;;;;;19.86;87.57;100617.94;7396908;19;20411;-43
2023/05/15 09:38:14;;;;;;;20.40;4.50;;;;;;;19.96;89.90;100611.88;7396939;19;20467;-44
2023/05/15 09:40:43;;;;;;;11.00;5.27;;;;;;;20.07;88.34;100615.38;7397865;19;20966;-42
2023/05/15 09:43:13;;;;;;;8.23;3.60;;;;;;;20.12;88.88;100614.50;7394870;19;20474;-46
2023/05/15 09:45:48;;;;;;;8.07;4.27;;;;;;;20.09;87.51;100608.41;7396662;19;20523;-45
2023/05/15 09:48:19;;;;;;;11.63;7.00;;;;;;;20.03;88.92;100611.00;7399169;19;20946;-45
2023/05/15 09:50:50;;;;;;;8.17;3.90;;;;;;;19.99;89.45;100598.78;7396925;19;20407;-45
2023/05/15 09:53:19;;;;;;;10.10;5.70;;;;;;;19.91;89.64;100592.66;7397720;19;20443;-43
2023/05/15 09:55:50;;;;;;;11.90;6.53;;;;;;;19.93;88.25;100601.38;7397129;19;21103;-44
2023/05/15 09:58:20;;;;;;;52.27;32.07;;;;;;;19.99;89.19;100601.41;7398729;19;21156;-48
2023/05/15 10:00:52;;;;;;;9.37;5.40;;;;;;;20.20;89.44;100591.81;7396221;19;20938;-45
2023/05/15 10:03:23;;;;;;;10.87;6.73;;;;;;;20.37;89.87;100602.28;7395597;19;20463;-43
2023/05/15 10:06:02;;;;;;;18.23;11.33;;;;;;;20.20;89.56;100600.53;7393583;19;20422;-42
2023/05/15 10:08:33;;;;;;;24.07;10.57;;;;;;;20.08;87.06;100596.19;7394568;19;20399;-44
2023/05/15 10:11:03;;;;;;;20.10;8.80;;;;;;;19.99;86.29;100582.22;7392905;19;20408;-43
2023/05/15 10:13:33;;;;;;;8.13;4.83;;;;;;;19.98;89.26;100591.81;7394911;19;20437;-46
2023/05/15 10:16:06;;;;;;;8.57;4.67;;;;;;;20.20;89.52;100583.97;7393317;19;20412;-44
2023/05/15 10:18:37;;;;;;;8.17;4.30;;;;;;;20.55;88.36;100583.00;7395373;19;20411;-44
2023/05/15 10:21:07;;;;;;;21.87;10.23;;;;;;;20.68;85.80;100585.59;7392866;19;20501;-43
2023/05/15 10:23:37;;;;;;;4.90;2.77;;;;;;;20.93;84.42;100573.31;7393382;19;20436;-45
2023/05/15 10:26:12;;;;;;;9.20;4.77;;;;;;;21.15;84.50;100581.06;7392803;19;20419;-43
2023/05/15 10:28:43;;;;;;;10.13;4.10;;;;;;;20.99;83.06;100575.91;7395641;19;20422;-48
2023/05/15 10:31:15;;;;;;;9.53;4.53;;;;;;;20.75;84.61;100582.97;7393736;19;20955;-44
2023/05/15 10:33:45;;;;;;;9.37;3.73;;;;;;;20.47;83.66;100576.94;7395009;19;20458;-47
2023/05/15 10:36:16;;;;;;;8.70;3.33;;;;;;;20.45;84.76;100579.53;7391747;19;20801;-45
2023/05/15 10:38:46;;;;;;;6.50;3.57;;;;;;;20.41;86.43;100572.56;7395753;19;20786;-46
2023/05/15 10:41:18;;;;;;;10.57;3.80;;;;;;;20.41;85.83;100569.06;7392976;19;20402;-47
2023/05/15 10:43:50;;;;;;;7.20;4.40;;;;;;;20.71;85.55;100567.25;7395955;19;20544;-47
2023/05/15 10:46:23;;;;;;;15.47;6.97;;;;;;;21.04;84.45;100557.53;7392489;19;20447;-43
2023/05/15 10:48:52;;;;;;;8.03;4.50;;;;;;;21.40;85.38;100560.84;7395899;19;20404;-49
2023/05/15 10:51:26;;;;;;;13.47;6.17;;;;;;;20.96;83.00;100548.84;7391751;19;20459;-48
2023/05/15 10:53:57;;;;;;;9.87;5.00;;;;;;;20.83;83.20;100555.84;7394782;19;20452;-46
2023/05/15 10:56:32;;;;;;;6.30;3.57;;;;;;;20.98;84.81;100552.31;7391745;19;20450;-44
2023/05/15 10:59:07;;;;;;;10.83;5.40;;;;;;;20.75;84.55;100554.13;7395742;19;20422;-45
2023/05/15 11:01:41;;;;;;;12.17;5.37;;;;;;;20.81;83.59;100555.84;7391638;19;20451;-44
2023/05/15 11:04:12;;;;;;;9.00;4.20;;;;;;;20.47;82.89;100553.34;7394726;19;20439;-48
2023/05/15 11:06:43;;;;;;;13.57;6.10;;;;;;;20.24;83.70;100560.38;7392181;19;20849;-45
2023/05/15 11:09:40;;;;;;;11.90;7.10;;;;;;;20.19;84.05;100551.66;7395579;19;20411;-46
2023/05/15 11:12:10;;;;;;;10.83;5.80;;;;;;;20.25;83.40;100550.75;7391458;19;20814;-43
2023/05/15 11:14:42;;;;;;;9.03;5.13;;;;;;;20.14;87.07;100558.63;7394657;19;20536;-43
2023/05/15 11:17:16;;;;;;;5.90;3.10;;;;;;;20.14;83.57;100549.91;7391570;19;20458;-46
2023/05/15 11:20:01;;;;;;;7.90;4.33;;;;;;;20.49;81.19;100534.13;7394761;19;20407;-43
2023/05/15 11:22:34;;;;;;;9.90;4.80;;;;;;;20.97;84.48;100534.84;7391224;19;20451;-46
2023/05/15 11:25:07;;;;;;;11.20;4.57;;;;;;;21.15;79.50;100502.41;7393800;19;20962;-45
2023/05/15 11:27:41;;;;;;;9.07;4.73;;;;;;;21.30;77.77;100498.81;7391729;19;20474;-43
2023/05/15 11:30:13;;;;;;;6.80;3.10;;;;;;;21.70;79.09;100498.50;7394571;19;20408;-48